Terminal Aerodrome Forecast
Issued by NWS

Home | Current Version | Previous Version | Text Only | Print | Product List | Glossary On
Versions: 1 2 3 4 5 6 7 8 9 10 11 12 13
000
FTUS45 KRIW 262300
TAFBPI
TAF
KBPI 262323Z 2700/2724 33016G24KT P6SM FEW070 SCT200
     FM270200 35009KT P6SM FEW200
     FM272000 30012G18KT P6SM SKC=

USA.gov is the U.S. government's official web portal to all federal, state and local government web resources and services.